This is the latest recevied weather packets stored in our database for station/object N0ZO-13. If no packets are shown the sender has not sent any weather packets the latest 10 day(s).
| Time | Temp. | Humidity | Pressure | Rain* | Wind** | Luminosity | Snow |
|---|---|---|---|---|---|---|---|
| 1777502778 | 25.56° C | 86% | 1005.6 hPa | 0 mm | - | 0 W/m² | - |
| 1777499788 | 26.11° C | 83% | 1005.7 hPa | 0 mm | - | 0 W/m² | - |
| 1777499182 | 26.67° C | 82% | 1006.1 hPa | 0 mm | - | 0 W/m² | - |
| 1777497986 | 26.67° C | 83% | 1005.7 hPa | 0 mm | - | 10 W/m² | - |
| 1777496788 | 26.67° C | 81% | 1005.8 hPa | 0 mm | - | 0 W/m² | - |
| 1777491990 | 27.78° C | 78% | 1006.8 hPa | 0 mm | - | 76 W/m² | - |
| 1777491403 | 27.78° C | 77% | 1007 hPa | 0 mm | - | 10 W/m² | - |
| 1777485390 | 27.78° C | 77% | 1008.2 hPa | 0 mm | - | 120 W/m² | - |
| 1777483590 | 26.11° C | 81% | 1008.6 hPa | 0 mm | - | 77 W/m² | - |
| 1777482984 | 26.67° C | 81% | 1008.7 hPa | 0 mm | - | 54 W/m² | - |
| 1777480598 | 26.67° C | 81% | 1009.1 hPa | 0 mm | - | 7 W/m² | - |
| 1777471576 | 20.56° C | 99% | 1009.9 hPa | 0 mm | - | 0 W/m² | - |
| 1777469204 | 18.89° C | 99% | 1010.2 hPa | 0 mm | - | 0 W/m² | - |
| 1777462597 | 17.78° C | 99% | 1009.7 hPa | 0 mm | - | 0 W/m² | - |
| 1777457180 | 17.78° C | 99% | 1009.8 hPa | 5.33 mm | - | 0 W/m² | - |
| 1777454184 | 17.78° C | 99% | 1011.3 hPa | 4.06 mm | - | 0 W/m² | - |
| 1777453578 | 17.78° C | 99% | 1010.7 hPa | 3.56 mm | - | 0 W/m² | - |
| 1777450580 | 17.78° C | 99% | 1011 hPa | 9.91 mm | - | 0 W/m² | - |
| 1777449989 | 17.78° C | 99% | 1010.9 hPa | 10.41 mm | - | 0 W/m² | - |
| 1777439776 | 17.78° C | 99% | 1010.7 hPa | 3.3 mm | - | 0 W/m² | - |
| 1777439185 | 17.78° C | 99% | 1010.5 hPa | 2.03 mm | - | 0 W/m² | - |
| 1777435589 | 17.78° C | 99% | 1010.4 hPa | 0.76 mm | - | 0 W/m² | - |
| 1777433786 | 17.78° C | 99% | 1011.7 hPa | 0.76 mm | - | 0 W/m² | - |
| 1777427787 | 18.33° C | 99% | 1012.7 hPa | 1.02 mm | - | 0 W/m² | - |
| 1777425390 | 18.33° C | 99% | 1012.2 hPa | 6.1 mm | - | 0 W/m² | - |
* Rain latest hour (hover to see other rain measurements)
** Current wind speed in m/s (hover to see current wind gust speed)